Aviation Digital Data Service (ADDS)

Output produced by TAFs form (0925 UTC 16 September 2014)
found at http://www.aviationweather.gov/adds/tafs/
 
KPOU 160520Z 1606/1706 00000KT P6SM BKN060 
     FM161400 28004KT P6SM FEW025 SCT050 
     FM170000 00000KT P6SM SKC